Time,TemperatureF,DewpointF,PressureIn,WindDirection,WindDirectionDegrees,WindSpeedMPH,WindSpeedGustMPH,Humidity,HourlyPrecipIn,Conditions,Clouds,dailyrainin,SoftwareType,DateUTC
2013-10-08 00:12:00,75.5,74.0,29.85,SSE,157,1.0,-999.0,94,-99.99,,,0.51,weatherlink.com 1.10,2013-10-08 04:12:00,
2013-10-08 00:27:00,75.6,74.0,29.85,SSW,205,1.0,-999.0,94,-99.99,,,0.51,weatherlink.com 1.10,2013-10-08 04:27:00,
2013-10-08 00:42:00,75.7,74.0,29.85,South,175,0.0,-999.0,94,-99.99,,,0.51,weatherlink.com 1.10,2013-10-08 04:42:00,
2013-10-08 00:57:00,75.6,74.0,29.84,South,175,1.0,-999.0,94,-99.99,,,0.51,weatherlink.com 1.10,2013-10-08 04:57:00,
2013-10-08 01:12:00,75.7,74.0,29.85,SSW,194,0.0,-999.0,94,-99.99,,,0.00,weatherlink.com 1.10,2013-10-08 05:12:00,
2013-10-08 01:27:00,75.7,74.0,29.84,SSW,199,0.0,-999.0,94,-99.99,,,0.00,weatherlink.com 1.10,2013-10-08 05:27:00,
2013-10-08 01:42:00,75.7,74.0,29.84,SSW,203,0.0,-999.0,95,-99.99,,,0.00,weatherlink.com 1.10,2013-10-08 05:42:00,
2013-10-08 01:57:00,75.7,74.0,29.84,SSE,156,0.0,-999.0,95,-99.99,,,0.00,weatherlink.com 1.10,2013-10-08 05:57:00,
2013-10-08 02:12:00,75.8,74.0,29.84,SSW,205,0.0,-999.0,95,-99.99,,,0.00,weatherlink.com 1.10,2013-10-08 06:12:00,
2013-10-08 02:27:00,76.0,75.0,29.84,SSE,164,1.0,-999.0,95,-99.99,,,0.00,weatherlink.com 1.10,2013-10-08 06:27:00,
2013-10-08 02:42:00,76.3,75.0,29.84,South,179,0.0,-999.0,95,-99.99,,,0.00,weatherlink.com 1.10,2013-10-08 06:42:00,
2013-10-08 02:58:00,76.3,75.0,29.84,SSW,200,0.0,-999.0,95,-99.99,,,0.00,weatherlink.com 1.10,2013-10-08 06:58:00,
2013-10-08 03:13:00,76.4,75.0,29.84,SSW,192,1.0,-999.0,95,-99.99,,,0.00,weatherlink.com 1.10,2013-10-08 07:13:00,
2013-10-08 03:28:00,76.4,75.0,29.84,SW,225,2.0,-999.0,95,-99.99,,,0.00,weatherlink.com 1.10,2013-10-08 07:28:00,
2013-10-08 03:43:00,76.5,75.0,29.84,South,190,0.0,-999.0,95,-99.99,,,0.00,weatherlink.com 1.10,2013-10-08 07:43:00,
2013-10-08 03:58:00,76.5,75.0,29.84,South,171,1.0,-999.0,95,-99.99,,,0.00,weatherlink.com 1.10,2013-10-08 07:58:00,
2013-10-08 04:13:00,76.4,75.0,29.84,SSW,203,0.0,-999.0,95,-99.99,,,0.00,weatherlink.com 1.10,2013-10-08 08:13:00,
2013-10-08 04:28:00,76.4,75.0,29.84,SSW,203,0.0,-999.0,96,-99.99,,,0.00,weatherlink.com 1.10,2013-10-08 08:28:00,
2013-10-08 04:43:00,76.2,75.0,29.84,SW,236,0.0,-999.0,96,-99.99,,,0.00,weatherlink.com 1.10,2013-10-08 08:43:00,
2013-10-08 04:58:00,76.1,75.0,29.84,SSW,192,0.0,-999.0,96,-99.99,,,0.00,weatherlink.com 1.10,2013-10-08 08:58:00,
2013-10-08 05:13:00,76.0,75.0,29.84,SW,227,0.0,-999.0,96,-99.99,,,0.01,weatherlink.com 1.10,2013-10-08 09:13:00,
2013-10-08 05:28:00,76.0,75.0,29.84,SW,214,0.0,-999.0,96,-99.99,,,0.01,weatherlink.com 1.10,2013-10-08 09:28:00,
2013-10-08 05:43:00,76.0,75.0,29.84,SSW,202,0.0,-999.0,96,-99.99,,,0.01,weatherlink.com 1.10,2013-10-08 09:43:00,
2013-10-08 05:58:00,76.0,75.0,29.85,SSE,153,0.0,-999.0,96,-99.99,,,0.01,weatherlink.com 1.10,2013-10-08 09:58:00,
2013-10-08 06:13:00,75.9,75.0,29.85,SSW,206,0.0,-999.0,96,-99.99,,,0.01,weatherlink.com 1.10,2013-10-08 10:13:00,
2013-10-08 06:28:00,75.9,75.0,29.85,SSW,201,0.0,-999.0,97,-99.99,,,0.01,weatherlink.com 1.10,2013-10-08 10:28:00,
2013-10-08 06:43:00,75.9,75.0,29.85,SSW,198,0.0,-999.0,97,-99.99,,,0.01,weatherlink.com 1.10,2013-10-08 10:43:00,
2013-10-08 06:58:00,75.9,75.0,29.85,SSW,196,0.0,-999.0,97,-99.99,,,0.01,weatherlink.com 1.10,2013-10-08 10:58:00,
2013-10-08 07:13:00,75.8,75.0,29.86,SSW,205,0.0,-999.0,97,-99.99,,,0.01,weatherlink.com 1.10,2013-10-08 11:13:00,
2013-10-08 07:28:00,75.7,75.0,29.87,SSW,205,0.0,-999.0,97,-99.99,,,0.01,weatherlink.com 1.10,2013-10-08 11:28:00,
2013-10-08 07:43:00,76.0,75.0,29.87,SSW,213,0.0,-999.0,97,-99.99,,,0.01,weatherlink.com 1.10,2013-10-08 11:43:00,
2013-10-08 07:58:00,76.7,76.0,29.87,SW,214,0.0,-999.0,97,-99.99,,,0.01,weatherlink.com 1.10,2013-10-08 11:58:00,
2013-10-08 08:13:00,77.9,77.0,29.88,West,261,0.0,-999.0,97,-99.99,,,0.01,weatherlink.com 1.10,2013-10-08 12:13:00,
2013-10-08 08:28:00,78.8,78.0,29.88,SW,234,0.0,-999.0,96,-99.99,,,0.01,weatherlink.com 1.10,2013-10-08 12:28:00,
2013-10-08 08:43:00,79.7,79.0,29.89,WSW,249,0.0,-999.0,96,-99.99,,,0.01,weatherlink.com 1.10,2013-10-08 12:43:00,
2013-10-08 08:58:00,80.1,78.0,29.89,West,275,0.0,-999.0,94,-99.99,,,0.01,weatherlink.com 1.10,2013-10-08 12:58:00,
2013-10-08 09:13:00,81.0,79.0,29.89,West,267,0.0,-999.0,92,-99.99,,,0.01,weatherlink.com 1.10,2013-10-08 13:13:00,
2013-10-08 09:28:00,81.0,77.0,29.90,SW,226,0.0,-999.0,88,-99.99,,,0.01,weatherlink.com 1.10,2013-10-08 13:28:00,
2013-10-08 09:43:00,81.8,77.0,29.90,WNW,291,2.0,-999.0,85,-99.99,,,0.01,weatherlink.com 1.10,2013-10-08 13:43:00,
2013-10-08 09:58:00,82.3,76.0,29.90,WNW,288,0.0,-999.0,82,-99.99,,,0.01,weatherlink.com 1.10,2013-10-08 13:58:00,
2013-10-08 10:13:00,82.8,76.0,29.90,SW,232,2.0,-999.0,81,-99.99,,,0.01,weatherlink.com 1.10,2013-10-08 14:13:00,
2013-10-08 10:28:00,83.8,77.0,29.90,NW,304,0.0,-999.0,80,-99.99,,,0.01,weatherlink.com 1.10,2013-10-08 14:28:00,
2013-10-08 10:43:00,84.5,77.0,29.90,WNW,289,0.0,-999.0,77,-99.99,,,0.01,weatherlink.com 1.10,2013-10-08 14:43:00,
2013-10-08 10:58:00,85.1,77.0,29.90,SW,227,0.0,-999.0,76,-99.99,,,0.01,weatherlink.com 1.10,2013-10-08 14:58:00,
2013-10-08 11:13:00,86.6,77.0,29.90,West,277,1.0,-999.0,72,-99.99,,,0.01,weatherlink.com 1.10,2013-10-08 15:13:00,
2013-10-08 11:28:00,86.4,76.0,29.90,SW,236,1.0,-999.0,70,-99.99,,,0.01,weatherlink.com 1.10,2013-10-08 15:28:00,
2013-10-08 11:43:00,86.4,76.0,29.90,SSW,202,0.0,-999.0,70,-99.99,,,0.01,weatherlink.com 1.10,2013-10-08 15:43:00,
2013-10-08 11:58:00,87.0,77.0,29.89,SW,233,1.0,-999.0,71,-99.99,,,0.01,weatherlink.com 1.10,2013-10-08 15:58:00,
2013-10-08 12:13:00,87.8,76.0,29.89,WSW,237,1.0,-999.0,69,-99.99,,,0.01,weatherlink.com 1.10,2013-10-08 16:13:00,
2013-10-08 12:29:00,88.5,76.0,29.89,WSW,244,1.0,-999.0,67,-99.99,,,0.01,weatherlink.com 1.10,2013-10-08 16:29:00,
2013-10-08 12:44:00,88.1,76.0,29.88,WSW,241,0.0,-999.0,67,-99.99,,,0.01,weatherlink.com 1.10,2013-10-08 16:44:00,
2013-10-08 12:59:00,88.9,76.0,29.88,WNW,294,5.0,-999.0,66,-99.99,,,0.01,weatherlink.com 1.10,2013-10-08 16:59:00,
2013-10-08 13:14:00,89.1,76.0,29.88,SSW,206,0.0,-999.0,65,-99.99,,,0.01,weatherlink.com 1.10,2013-10-08 17:14:00,
2013-10-08 13:29:00,88.4,76.0,29.88,West,261,2.0,-999.0,66,-99.99,,,0.01,weatherlink.com 1.10,2013-10-08 17:29:00,
2013-10-08 13:44:00,88.8,75.0,29.87,West,277,4.0,-999.0,63,-99.99,,,0.01,weatherlink.com 1.10,2013-10-08 17:44:00,
2013-10-08 13:59:00,90.2,76.0,29.86,West,281,1.0,-999.0,63,-99.99,,,0.01,weatherlink.com 1.10,2013-10-08 17:59:00,
2013-10-08 14:14:00,90.7,76.0,29.86,NW,307,4.0,-999.0,62,-99.99,,,0.01,weatherlink.com 1.10,2013-10-08 18:14:00,
2013-10-08 14:29:00,91.1,75.0,29.85,NW,319,1.0,-999.0,60,-99.99,,,0.01,weatherlink.com 1.10,2013-10-08 18:29:00,
2013-10-08 14:44:00,91.9,76.0,29.85,West,268,1.0,-999.0,59,-99.99,,,0.01,weatherlink.com 1.10,2013-10-08 18:44:00,
2013-10-08 14:59:00,90.9,75.0,29.84,SW,233,0.0,-999.0,60,-99.99,,,0.01,weatherlink.com 1.10,2013-10-08 18:59:00,
2013-10-08 15:14:00,92.5,76.0,29.85,SW,223,1.0,-999.0,58,-99.99,,,0.01,weatherlink.com 1.10,2013-10-08 19:14:00,
2013-10-08 15:29:00,91.9,75.0,29.85,WNW,302,1.0,-999.0,58,-99.99,,,0.01,weatherlink.com 1.10,2013-10-08 19:29:00,
2013-10-08 15:44:00,91.2,75.0,29.84,NNW,344,0.0,-999.0,59,-99.99,,,0.01,weatherlink.com 1.10,2013-10-08 19:44:00,
2013-10-08 15:59:00,90.6,75.0,29.85,WNW,285,0.0,-999.0,60,-99.99,,,0.01,weatherlink.com 1.10,2013-10-08 19:59:00,
2013-10-08 16:14:00,90.3,75.0,29.84,WSW,252,0.0,-999.0,60,-99.99,,,0.01,weatherlink.com 1.10,2013-10-08 20:14:00,
2013-10-08 16:29:00,89.3,75.0,29.84,West,269,0.0,-999.0,62,-99.99,,,0.01,weatherlink.com 1.10,2013-10-08 20:29:00,
2013-10-08 16:44:00,90.1,75.0,29.84,WNW,289,4.0,-999.0,61,-99.99,,,0.01,weatherlink.com 1.10,2013-10-08 20:44:00,
2013-10-08 16:59:00,89.0,74.0,29.85,WNW,292,2.0,-999.0,62,-99.99,,,0.01,weatherlink.com 1.10,2013-10-08 20:59:00,
2013-10-08 17:14:00,89.8,75.0,29.85,West,279,2.0,-999.0,62,-99.99,,,0.01,weatherlink.com 1.10,2013-10-08 21:14:00,
2013-10-08 17:29:00,89.5,75.0,29.84,WNW,284,2.0,-999.0,62,-99.99,,,0.01,weatherlink.com 1.10,2013-10-08 21:29:00,
2013-10-08 17:44:00,88.8,74.0,29.84,WNW,290,2.0,-999.0,61,-99.99,,,0.01,weatherlink.com 1.10,2013-10-08 21:44:00,
2013-10-08 17:59:00,88.2,73.0,29.84,West,260,1.0,-999.0,61,-99.99,,,0.01,weatherlink.com 1.10,2013-10-08 21:59:00,
2013-10-08 18:14:00,87.2,74.0,29.85,WSW,240,4.0,-999.0,64,-99.99,,,0.01,weatherlink.com 1.10,2013-10-08 22:14:00,
2013-10-08 18:29:00,86.8,74.0,29.85,West,277,1.0,-999.0,65,-99.99,,,0.01,weatherlink.com 1.10,2013-10-08 22:29:00,
2013-10-08 18:44:00,86.3,74.0,29.86,West,259,0.0,-999.0,66,-99.99,,,0.01,weatherlink.com 1.10,2013-10-08 22:44:00,
2013-10-08 18:59:00,85.6,74.0,29.86,SW,224,0.0,-999.0,68,-99.99,,,0.01,weatherlink.com 1.10,2013-10-08 22:59:00,
2013-10-08 19:14:00,84.5,74.0,29.87,West,276,0.0,-999.0,71,-99.99,,,0.01,weatherlink.com 1.10,2013-10-08 23:14:00,
2013-10-08 19:29:00,83.9,74.0,29.87,WNW,302,1.0,-999.0,73,-99.99,,,0.01,weatherlink.com 1.10,2013-10-08 23:29:00,
2013-10-08 19:44:00,83.5,74.0,29.87,West,261,0.0,-999.0,73,-99.99,,,0.01,weatherlink.com 1.10,2013-10-08 23:44:00,
2013-10-08 19:59:00,83.0,74.0,29.88,West,274,0.0,-999.0,73,-99.99,,,0.01,weatherlink.com 1.10,2013-10-08 23:59:00,
2013-10-08 20:14:00,82.6,73.0,29.89,NW,305,1.0,-999.0,73,-99.99,,,0.01,weatherlink.com 1.10,2013-10-09 00:14:00,
2013-10-08 20:29:00,82.2,73.0,29.89,WSW,250,0.0,-999.0,74,-99.99,,,0.01,weatherlink.com 1.10,2013-10-09 00:29:00,
2013-10-08 20:44:00,81.8,73.0,29.89,WNW,303,1.0,-999.0,74,-99.99,,,0.01,weatherlink.com 1.10,2013-10-09 00:44:00,
2013-10-08 20:59:00,81.3,72.0,29.89,WSW,244,0.0,-999.0,74,-99.99,,,0.01,weatherlink.com 1.10,2013-10-09 00:59:00,
2013-10-08 21:14:00,81.0,72.0,29.90,WNW,300,0.0,-999.0,74,-99.99,,,0.01,weatherlink.com 1.10,2013-10-09 01:14:00,
2013-10-08 21:29:00,80.6,72.0,29.90,WNW,283,0.0,-999.0,74,-99.99,,,0.01,weatherlink.com 1.10,2013-10-09 01:29:00,
2013-10-08 21:44:00,80.0,71.0,29.90,WNW,296,1.0,-999.0,74,-99.99,,,0.01,weatherlink.com 1.10,2013-10-09 01:44:00,
2013-10-08 21:59:00,79.6,71.0,29.91,WSW,239,0.0,-999.0,76,-99.99,,,0.01,weatherlink.com 1.10,2013-10-09 01:59:00,
2013-10-08 22:14:00,79.2,71.0,29.91,West,273,1.0,-999.0,77,-99.99,,,0.01,weatherlink.com 1.10,2013-10-09 02:14:00,
2013-10-08 22:29:00,78.8,71.0,29.92,WNW,299,1.0,-999.0,78,-99.99,,,0.01,weatherlink.com 1.10,2013-10-09 02:29:00,
2013-10-08 22:44:00,78.4,71.0,29.92,WSW,244,1.0,-999.0,79,-99.99,,,0.01,weatherlink.com 1.10,2013-10-09 02:44:00,
2013-10-08 22:59:00,78.1,72.0,29.92,SSW,203,1.0,-999.0,80,-99.99,,,0.01,weatherlink.com 1.10,2013-10-09 02:59:00,
2013-10-08 23:14:00,77.5,71.0,29.92,WNW,284,1.0,-999.0,81,-99.99,,,0.01,weatherlink.com 1.10,2013-10-09 03:14:00,
2013-10-08 23:29:00,77.2,71.0,29.92,SSW,213,0.0,-999.0,82,-99.99,,,0.01,weatherlink.com 1.10,2013-10-09 03:29:00,
2013-10-08 23:44:00,77.0,72.0,29.92,NW,305,0.0,-999.0,83,-99.99,,,0.01,weatherlink.com 1.10,2013-10-09 03:44:00,
2013-10-08 23:59:00,76.5,71.0,29.92,SW,233,0.0,-999.0,83,-99.99,,,0.01,weatherlink.com 1.10,2013-10-09 03:59:00,